createdAt,value
2018-05-09T00:02:03.355Z,25.70
2018-05-09T00:04:30.856Z,25.80
2018-05-09T00:06:58.338Z,25.70
2018-05-09T00:09:26.013Z,25.80
2018-05-09T00:11:53.528Z,25.90
2018-05-09T00:14:21.021Z,25.90
2018-05-09T00:16:49.309Z,25.90
2018-05-09T00:19:17.583Z,26.00
2018-05-09T00:21:45.048Z,26.00
2018-05-09T00:24:12.575Z,26.00
2018-05-09T00:26:40.055Z,26.00
2018-05-09T00:29:07.552Z,26.00
2018-05-09T00:31:35.019Z,26.10
2018-05-09T00:34:02.512Z,26.10
2018-05-09T00:36:29.973Z,26.00
2018-05-09T00:38:57.470Z,26.10
2018-05-09T00:41:25.824Z,26.10
2018-05-09T00:43:53.289Z,26.20
2018-05-09T00:46:20.782Z,26.10
2018-05-09T00:48:48.244Z,26.20
2018-05-09T00:51:15.741Z,26.20
2018-05-09T00:53:43.973Z,26.30
2018-05-09T00:56:11.461Z,26.30
2018-05-09T00:58:38.941Z,26.30
2018-05-09T01:01:06.535Z,26.40
2018-05-09T01:03:34.780Z,26.80
2018-05-09T01:06:02.260Z,26.50
2018-05-09T01:08:29.742Z,26.50
2018-05-09T01:10:57.240Z,26.50
2018-05-09T01:13:24.708Z,26.60
2018-05-09T01:15:52.186Z,26.60
2018-05-09T01:18:20.444Z,26.80
2018-05-09T01:20:47.924Z,26.70
2018-05-09T01:23:15.418Z,26.70
2018-05-09T01:25:42.888Z,26.80
2018-05-09T01:28:10.393Z,26.80
2018-05-09T01:30:37.869Z,26.80
2018-05-09T01:33:05.360Z,26.80
2018-05-09T01:35:32.823Z,26.90
2018-05-09T01:38:00.303Z,27.00
2018-05-09T01:40:27.784Z,27.00
2018-05-09T01:42:55.725Z,27.00
2018-05-09T01:45:23.272Z,27.00
2018-05-09T01:47:51.535Z,27.10
2018-05-09T01:50:19.012Z,27.10
2018-05-09T01:52:46.501Z,27.20
2018-05-09T01:55:13.965Z,27.20
2018-05-09T01:57:41.453Z,27.30
2018-05-09T02:00:09.696Z,27.30
2018-05-09T02:02:37.204Z,27.40
2018-05-09T02:05:05.453Z,27.30
2018-05-09T02:07:32.916Z,27.30
2018-05-09T02:10:01.256Z,27.40
2018-05-09T02:12:29.531Z,27.40
2018-05-09T02:14:57.103Z,27.40
2018-05-09T02:17:24.590Z,27.40
2018-05-09T02:19:52.872Z,27.50
2018-05-09T02:22:21.160Z,27.50
2018-05-09T02:24:48.646Z,27.50
2018-05-09T02:27:16.908Z,27.60
2018-05-09T02:29:44.400Z,27.60
2018-05-09T02:32:11.868Z,27.60
2018-05-09T02:34:40.138Z,27.60
2018-05-09T02:37:07.696Z,27.60
2018-05-09T02:39:35.166Z,27.70
2018-05-09T02:42:02.656Z,27.60
2018-05-09T02:44:30.120Z,27.70
2018-05-09T02:46:57.647Z,27.60
2018-05-09T02:49:25.165Z,27.70
2018-05-09T02:51:52.690Z,27.70
2018-05-09T02:54:20.163Z,27.80
2018-05-09T02:56:47.782Z,27.80
2018-05-09T02:59:15.244Z,27.80
2018-05-09T03:01:42.765Z,27.80
2018-05-09T03:04:10.241Z,27.80
2018-05-09T03:06:37.743Z,27.80
2018-05-09T03:09:05.216Z,27.90
2018-05-09T03:11:32.720Z,28.00
2018-05-09T03:14:00.197Z,27.90
2018-05-09T03:16:27.743Z,28.00
2018-05-09T03:18:55.225Z,27.90
2018-05-09T03:21:22.704Z,27.90
2018-05-09T03:23:50.224Z,27.90
2018-05-09T03:26:17.688Z,27.90
2018-05-09T03:28:45.201Z,28.00
2018-05-09T03:31:12.680Z,28.00
2018-05-09T03:33:40.198Z,27.90
2018-05-09T03:36:07.762Z,27.90
2018-05-09T03:38:36.021Z,28.00
2018-05-09T03:41:03.495Z,28.00
2018-05-09T03:43:30.989Z,28.10
2018-05-09T03:45:59.238Z,28.10
2018-05-09T03:48:26.786Z,28.10
2018-05-09T03:50:54.280Z,28.10
2018-05-09T03:53:21.823Z,28.20
2018-05-09T03:55:49.300Z,28.20
2018-05-09T03:58:16.794Z,28.20
2018-05-09T04:00:44.295Z,28.30
2018-05-09T04:03:24.557Z,28.30
2018-05-09T04:06:03.790Z,28.40
2018-05-09T04:08:44.793Z,28.40
2018-05-09T04:11:12.275Z,28.50
2018-05-09T04:13:40.513Z,28.60
2018-05-09T04:16:08.157Z,28.50
2018-05-09T04:18:35.630Z,28.50
2018-05-09T04:21:03.129Z,28.60
2018-05-09T04:23:30.605Z,28.70
2018-05-09T04:28:31.892Z,28.80
2018-05-09T04:30:59.430Z,28.80
2018-05-09T04:33:27.803Z,28.90
2018-05-09T04:35:56.054Z,29.00
2018-05-09T04:38:23.546Z,29.00
2018-05-09T04:40:51.040Z,29.00
2018-05-09T04:43:18.560Z,29.10
2018-05-09T04:45:46.032Z,29.10
2018-05-09T04:48:13.531Z,29.20
2018-05-09T04:50:42.601Z,29.40
2018-05-09T04:53:10.118Z,29.50
2018-05-09T04:55:37.628Z,29.30
2018-05-09T04:58:05.867Z,29.50
2018-05-09T05:00:33.352Z,29.60
2018-05-09T05:03:00.842Z,29.50
2018-05-09T05:05:29.094Z,29.70
2018-05-09T05:07:56.615Z,29.70
2018-05-09T05:10:24.095Z,29.70
2018-05-09T05:12:51.630Z,29.80
2018-05-09T05:15:19.983Z,29.80
2018-05-09T05:17:47.477Z,29.80
2018-05-09T05:20:16.469Z,30.00
2018-05-09T05:22:44.084Z,30.00
2018-05-09T05:25:12.424Z,30.00
2018-05-09T05:27:39.880Z,30.00
2018-05-09T05:30:07.388Z,30.00
2018-05-09T05:32:34.860Z,30.00
2018-05-09T05:35:02.341Z,30.00
2018-05-09T05:37:30.728Z,30.00
2018-05-09T05:39:58.452Z,30.00
2018-05-09T05:42:26.108Z,30.20
2018-05-09T05:44:53.603Z,30.20
2018-05-09T05:47:21.084Z,30.20
2018-05-09T05:49:48.572Z,30.40
2018-05-09T05:52:16.065Z,30.40
2018-05-09T05:54:43.541Z,30.40
2018-05-09T05:57:11.044Z,30.40
2018-05-09T05:59:38.596Z,31.00
2018-05-09T06:02:06.112Z,30.40
2018-05-09T06:04:33.593Z,30.50
2018-05-09T06:07:01.077Z,30.50
2018-05-09T06:09:28.607Z,30.50
2018-05-09T06:11:56.159Z,30.50
2018-05-09T06:14:23.631Z,30.70
2018-05-09T06:16:51.979Z,30.80
2018-05-09T06:19:19.474Z,30.80
2018-05-09T06:21:49.633Z,31.00
2018-05-09T06:24:17.945Z,31.00
2018-05-09T06:26:45.384Z,31.00
2018-05-09T06:29:13.648Z,31.00
2018-05-09T06:31:41.113Z,31.10
2018-05-09T06:34:08.797Z,31.10
2018-05-09T06:36:37.776Z,31.30
2018-05-09T06:39:05.265Z,31.40
2018-05-09T06:41:32.817Z,31.20
2018-05-09T06:44:00.240Z,31.30
2018-05-09T06:46:28.480Z,31.50
2018-05-09T06:48:56.000Z,31.50
2018-05-09T06:51:24.276Z,31.60
2018-05-09T06:53:52.531Z,31.60
2018-05-09T06:56:19.996Z,31.70
2018-05-09T06:58:47.480Z,31.70
2018-05-09T07:01:14.956Z,31.70
2018-05-09T07:03:42.562Z,31.80
2018-05-09T07:06:10.162Z,31.70
2018-05-09T07:08:38.389Z,32.00
2018-05-09T07:11:05.881Z,32.00
2018-05-09T07:13:34.269Z,32.30
2018-05-09T07:16:01.758Z,32.30
2018-05-09T07:18:29.998Z,32.80
2018-05-09T07:20:57.490Z,32.90
2018-05-09T07:23:24.960Z,33.10
2018-05-09T07:25:52.494Z,33.40
2018-05-09T07:28:19.963Z,33.60
2018-05-09T07:30:47.441Z,33.90
2018-05-09T07:33:14.913Z,34.10
2018-05-09T07:35:42.401Z,34.30
2018-05-09T07:38:10.004Z,34.20
2018-05-09T07:40:37.496Z,34.00
2018-05-09T07:43:05.737Z,33.60
2018-05-09T07:45:33.224Z,33.50
2018-05-09T07:48:00.709Z,33.40
2018-05-09T07:50:28.984Z,33.20
2018-05-09T07:52:56.477Z,33.20
2018-05-09T07:55:24.752Z,33.00
2018-05-09T07:57:52.221Z,32.80
2018-05-09T08:00:20.504Z,32.10
2018-05-09T08:02:47.998Z,32.00
2018-05-09T08:05:16.236Z,31.40
2018-05-09T08:07:44.364Z,31.30
2018-05-09T08:10:12.600Z,31.10
2018-05-09T08:12:40.112Z,30.90
2018-05-09T08:15:07.596Z,30.80
2018-05-09T08:17:35.270Z,30.30
2018-05-09T08:20:02.737Z,30.60
2018-05-09T08:22:30.232Z,29.90
2018-05-09T08:24:58.460Z,29.20
2018-05-09T08:27:26.005Z,29.10
2018-05-09T08:29:53.621Z,28.70
2018-05-09T08:32:21.123Z,28.60
2018-05-09T08:34:49.380Z,28.20
2018-05-09T08:37:16.862Z,28.10
2018-05-09T08:39:44.332Z,27.70
2018-05-09T08:42:11.824Z,27.50
2018-05-09T08:44:40.068Z,27.00
2018-05-09T08:47:07.568Z,26.90
2018-05-09T08:49:35.046Z,26.80
2018-05-09T08:52:02.520Z,26.40
2018-05-09T08:54:30.789Z,26.10
2018-05-09T08:56:58.264Z,26.10
2018-05-09T08:59:25.760Z,26.00
2018-05-09T09:01:54.008Z,25.50
2018-05-09T09:04:21.561Z,25.40
2018-05-09T09:06:49.757Z,25.50
2018-05-09T09:09:17.244Z,24.80
2018-05-09T09:11:44.740Z,24.80
2018-05-09T09:14:12.269Z,24.60
2018-05-09T09:16:39.744Z,24.30
2018-05-09T09:19:07.237Z,24.00
2018-05-09T09:21:34.723Z,23.50
2018-05-09T09:24:02.198Z,23.00
2018-05-09T09:26:30.452Z,22.40
2018-05-09T09:28:57.925Z,22.20
2018-05-09T09:31:25.435Z,22.10
2018-05-09T09:33:53.707Z,21.70
2018-05-09T09:36:21.201Z,21.60
2018-05-09T09:38:49.452Z,21.00
2018-05-09T09:41:16.979Z,21.00
2018-05-09T09:43:44.448Z,20.40
2018-05-09T09:46:11.949Z,20.20
2018-05-09T09:48:39.420Z,20.10
2018-05-09T09:51:06.937Z,20.00
2018-05-09T09:53:35.168Z,20.10
2018-05-09T09:56:02.669Z,19.90
2018-05-09T09:58:30.157Z,19.90
2018-05-09T10:00:57.637Z,19.70
2018-05-09T10:03:25.124Z,19.50
2018-05-09T10:05:52.615Z,19.30
2018-05-09T10:08:20.104Z,19.10
2018-05-09T10:10:48.354Z,18.40
2018-05-09T10:13:16.607Z,18.00
2018-05-09T10:15:44.077Z,17.90
2018-05-09T10:18:11.569Z,18.10
2018-05-09T10:20:39.811Z,17.20
2018-05-09T10:23:07.324Z,17.10
2018-05-09T10:25:34.801Z,17.20
2018-05-09T10:28:03.083Z,17.10
2018-05-09T10:30:30.748Z,17.10
2018-05-09T10:32:58.268Z,17.00
2018-05-09T10:35:25.746Z,16.70
2018-05-09T10:37:53.248Z,16.40
2018-05-09T10:40:20.900Z,16.00
2018-05-09T10:42:48.373Z,16.00
2018-05-09T10:45:15.860Z,16.00
2018-05-09T10:47:43.326Z,15.90
2018-05-09T10:50:10.932Z,16.00
2018-05-09T10:52:39.912Z,14.90
2018-05-09T10:55:07.404Z,14.80
2018-05-09T10:57:34.878Z,14.90
2018-05-09T11:00:02.370Z,15.10
2018-05-09T11:02:30.613Z,15.40
2018-05-09T11:04:58.143Z,15.30
2018-05-09T11:07:26.458Z,15.50
2018-05-09T11:09:54.151Z,15.40
2018-05-09T11:12:21.661Z,15.30
2018-05-09T11:14:49.911Z,15.10
2018-05-09T11:17:17.435Z,15.00
2018-05-09T11:19:44.940Z,15.00
2018-05-09T11:22:12.577Z,15.00
2018-05-09T11:24:40.028Z,14.90
2018-05-09T11:27:08.288Z,14.90
2018-05-09T11:29:35.755Z,14.90
2018-05-09T11:32:03.257Z,14.90
2018-05-09T11:34:30.729Z,14.50
2018-05-09T11:36:58.267Z,13.90
2018-05-09T11:39:25.757Z,13.90
2018-05-09T11:41:53.258Z,13.10
2018-05-09T11:44:20.741Z,13.00
2018-05-09T11:46:48.239Z,13.10
2018-05-09T11:49:15.805Z,13.30
2018-05-09T11:51:43.269Z,13.60
2018-05-09T11:54:10.755Z,14.10
2018-05-09T11:56:38.224Z,14.70
2018-05-09T11:59:05.724Z,14.70
2018-05-09T12:01:33.189Z,14.90
2018-05-09T12:04:00.688Z,15.10
2018-05-09T12:06:28.947Z,14.90
2018-05-09T12:08:56.435Z,14.90
2018-05-09T12:11:23.923Z,14.70
2018-05-09T12:13:52.330Z,14.10
2018-05-09T12:16:20.569Z,13.70
2018-05-09T12:18:48.062Z,13.60
2018-05-09T12:21:15.556Z,13.50
2018-05-09T12:23:43.801Z,14.10
2018-05-09T12:26:11.304Z,14.00
2018-05-09T12:28:39.595Z,14.50
2018-05-09T12:31:07.849Z,14.50
2018-05-09T12:33:35.318Z,14.40
2018-05-09T12:36:02.836Z,14.30
2018-05-09T12:38:31.116Z,13.80
2018-05-09T12:40:59.414Z,13.70
2018-05-09T12:43:26.901Z,13.60
2018-05-09T12:45:54.563Z,13.40
2018-05-09T12:48:22.048Z,13.40
2018-05-09T12:50:49.576Z,13.30
2018-05-09T12:53:17.094Z,13.10
2018-05-09T12:55:44.624Z,13.20
2018-05-09T12:58:12.540Z,13.30
2018-05-09T13:00:40.047Z,13.20
2018-05-09T13:03:07.536Z,13.10
2018-05-09T13:05:35.025Z,12.70
2018-05-09T13:08:02.508Z,12.60
2018-05-09T13:10:30.834Z,12.30
2018-05-09T13:12:58.377Z,12.20
2018-05-09T13:15:25.866Z,12.00
2018-05-09T13:17:54.128Z,11.90
2018-05-09T13:20:22.382Z,11.70
2018-05-09T13:22:50.697Z,11.60
2018-05-09T13:25:18.161Z,11.60
2018-05-09T13:27:45.650Z,11.50
2018-05-09T13:30:13.993Z,11.60
2018-05-09T13:32:41.508Z,11.50
2018-05-09T13:35:09.740Z,11.50
2018-05-09T13:37:37.257Z,11.50
2018-05-09T13:40:04.759Z,11.30
2018-05-09T13:42:33.069Z,11.20
2018-05-09T13:45:00.593Z,11.20
2018-05-09T13:47:28.100Z,11.10
2018-05-09T13:49:55.600Z,10.90
2018-05-09T13:52:23.120Z,10.90
2018-05-09T13:54:50.616Z,10.80
2018-05-09T13:57:18.094Z,10.70
2018-05-09T13:59:45.603Z,10.70
2018-05-09T14:02:13.895Z,10.90
2018-05-09T14:04:41.403Z,10.80
2018-05-09T14:07:09.654Z,10.70
2018-05-09T14:09:37.156Z,10.60
2018-05-09T14:12:05.405Z,10.70
2018-05-09T14:14:32.976Z,10.70
2018-05-09T14:17:00.444Z,10.60
2018-05-09T14:19:27.944Z,10.50
2018-05-09T14:21:55.453Z,10.20
2018-05-09T14:24:22.956Z,10.60
2018-05-09T14:26:51.176Z,9.80
2018-05-09T14:29:18.669Z,9.70
2018-05-09T14:31:46.904Z,9.70
2018-05-09T14:34:14.473Z,9.70
2018-05-09T14:36:41.948Z,9.60
2018-05-09T14:39:09.441Z,9.60
2018-05-09T14:41:36.917Z,9.50
2018-05-09T14:44:04.413Z,9.40
2018-05-09T14:46:32.787Z,9.50
2018-05-09T14:49:00.277Z,9.40
2018-05-09T14:51:28.581Z,9.50
2018-05-09T14:53:56.129Z,9.40
2018-05-09T14:56:23.703Z,9.30
2018-05-09T14:58:51.237Z,9.40
2018-05-09T15:01:18.720Z,9.20
2018-05-09T15:03:46.193Z,9.10
2018-05-09T15:06:13.791Z,9.10
2018-05-09T15:08:42.087Z,9.30
2018-05-09T15:11:09.518Z,9.30
2018-05-09T15:13:36.985Z,9.40
2018-05-09T15:16:04.511Z,9.50
2018-05-09T15:18:32.745Z,9.60
2018-05-09T15:21:00.224Z,9.60
2018-05-09T15:23:27.725Z,9.50
2018-05-09T15:25:56.060Z,9.00
2018-05-09T15:28:23.592Z,9.20
2018-05-09T15:30:51.268Z,9.20
2018-05-09T15:33:19.508Z,9.10
2018-05-09T15:35:46.980Z,9.10
2018-05-09T15:38:14.469Z,9.20
2018-05-09T15:40:41.934Z,9.30
2018-05-09T15:43:09.777Z,9.30
2018-05-09T15:45:37.252Z,9.20
2018-05-09T15:48:04.740Z,9.20
2018-05-09T15:50:32.983Z,9.30
2018-05-09T15:53:01.253Z,9.50
2018-05-09T15:55:28.755Z,9.50
2018-05-09T15:57:56.279Z,9.60
2018-05-09T16:00:23.752Z,9.60
2018-05-09T16:02:51.272Z,9.50
2018-05-09T16:05:18.744Z,9.50
2018-05-09T16:07:46.271Z,9.60
2018-05-09T16:10:13.937Z,9.50
2018-05-09T16:12:41.455Z,9.60
2018-05-09T16:15:08.940Z,9.60
2018-05-09T16:17:36.453Z,9.70
2018-05-09T16:20:03.979Z,9.70
2018-05-09T16:22:31.560Z,9.80
2018-05-09T16:24:58.972Z,9.80
2018-05-09T16:27:26.571Z,9.90
2018-05-09T16:29:54.127Z,9.90
2018-05-09T16:32:21.773Z,9.90
2018-05-09T16:34:50.025Z,10.10
2018-05-09T16:37:17.517Z,10.10
2018-05-09T16:39:45.046Z,10.20
2018-05-09T16:42:12.544Z,10.40
2018-05-09T16:44:40.185Z,10.60
2018-05-09T16:47:07.680Z,10.80
2018-05-09T16:49:35.301Z,11.00
2018-05-09T16:52:02.827Z,11.10
2018-05-09T16:54:31.098Z,11.50
2018-05-09T16:56:58.587Z,11.40
2018-05-09T16:59:26.933Z,11.80
2018-05-09T17:01:54.468Z,11.80
2018-05-09T17:04:22.009Z,11.90
2018-05-09T17:06:50.309Z,11.80
2018-05-09T17:09:17.800Z,12.30
2018-05-09T17:11:45.779Z,12.40
2018-05-09T17:14:13.253Z,12.60
2018-05-09T17:16:40.748Z,12.70
2018-05-09T17:19:08.259Z,12.80
2018-05-09T17:21:47.575Z,12.90
2018-05-09T17:24:15.043Z,13.00
2018-05-09T17:26:42.542Z,13.10
2018-05-09T17:29:10.012Z,13.20
2018-05-09T17:31:37.496Z,13.30
2018-05-09T17:34:05.744Z,13.50
2018-05-09T17:36:33.248Z,13.50
2018-05-09T17:39:00.728Z,13.50
2018-05-09T17:41:28.299Z,13.70
2018-05-09T17:43:55.867Z,13.90
2018-05-09T17:46:23.402Z,13.80
2018-05-09T17:48:51.691Z,14.00
2018-05-09T17:51:19.227Z,13.90
2018-05-09T17:53:47.457Z,14.10
2018-05-09T17:56:15.104Z,14.10
2018-05-09T17:58:42.701Z,14.20
2018-05-09T18:01:10.109Z,14.30
2018-05-09T18:03:37.601Z,14.40
2018-05-09T18:06:05.838Z,14.70
2018-05-09T18:08:33.337Z,14.60
2018-05-09T18:11:00.818Z,14.70
2018-05-09T18:13:28.499Z,14.80
2018-05-09T18:15:56.843Z,15.40
2018-05-09T18:18:24.341Z,15.00
2018-05-09T18:20:51.894Z,15.10
2018-05-09T18:23:19.389Z,15.20
2018-05-09T18:25:46.872Z,15.30
2018-05-09T18:28:14.355Z,15.50
2018-05-09T18:30:42.604Z,15.80
2018-05-09T18:33:10.084Z,15.80
2018-05-09T18:35:37.567Z,15.90
2018-05-09T18:38:05.060Z,16.10
2018-05-09T18:40:33.338Z,16.40
2018-05-09T18:43:01.668Z,16.50
2018-05-09T18:45:29.233Z,16.60
2018-05-09T18:47:56.787Z,16.60
2018-05-09T18:50:24.291Z,16.80
2018-05-09T18:52:51.777Z,16.90
2018-05-09T18:55:19.297Z,17.10
2018-05-09T18:57:47.530Z,17.40
2018-05-09T19:00:15.490Z,17.40
2018-05-09T19:02:42.971Z,17.50
2018-05-09T19:05:11.002Z,17.60
2018-05-09T19:07:39.294Z,17.90
2018-05-09T19:10:06.811Z,17.90
2018-05-09T19:12:34.317Z,18.00
2018-05-09T19:15:01.839Z,18.20
2018-05-09T19:17:29.352Z,18.30
2018-05-09T19:19:56.904Z,18.40
2018-05-09T19:22:24.422Z,18.50
2018-05-09T19:24:52.702Z,18.80
2018-05-09T19:27:20.177Z,18.80
2018-05-09T19:29:47.674Z,19.00
2018-05-09T19:32:16.027Z,19.20
2018-05-09T19:34:43.553Z,19.20
2018-05-09T19:37:11.122Z,19.30
2018-05-09T19:39:38.615Z,19.40
2018-05-09T19:42:06.106Z,19.50
2018-05-09T19:44:33.582Z,19.60
2018-05-09T19:49:36.157Z,20.10
2018-05-09T19:52:03.633Z,20.10
2018-05-09T19:54:31.129Z,20.10
2018-05-09T19:56:58.635Z,20.20
2018-05-09T19:59:26.114Z,20.20
2018-05-09T20:01:54.386Z,20.40
2018-05-09T20:04:21.862Z,20.50
2018-05-09T20:06:49.389Z,20.50
2018-05-09T20:09:16.885Z,20.60
2018-05-09T20:11:44.375Z,20.70
2018-05-09T20:14:11.931Z,20.70
2018-05-09T20:16:39.416Z,20.80
2018-05-09T20:19:06.876Z,20.90
2018-05-09T20:21:34.352Z,21.00
2018-05-09T20:24:01.857Z,21.10
2018-05-09T20:26:29.445Z,21.10
2018-05-09T20:29:01.669Z,21.30
2018-05-09T20:31:46.832Z,21.40
2018-05-09T20:34:14.325Z,21.40
2018-05-09T20:36:41.794Z,21.40
2018-05-09T20:39:09.288Z,21.50
2018-05-09T20:41:36.848Z,21.60
2018-05-09T20:44:04.398Z,21.70
2018-05-09T20:46:32.049Z,21.80
2018-05-09T20:48:59.640Z,21.90
2018-05-09T20:51:39.153Z,21.90
2018-05-09T20:54:06.707Z,22.00
2018-05-09T20:56:34.249Z,22.10
2018-05-09T20:59:01.892Z,22.10
2018-05-09T21:04:28.689Z,22.20
2018-05-09T21:06:56.961Z,22.20
2018-05-09T21:09:25.244Z,22.20
2018-05-09T21:12:04.747Z,22.30
2018-05-09T21:14:32.389Z,22.20
2018-05-09T21:16:59.905Z,22.20
2018-05-09T21:19:27.473Z,22.20
2018-05-09T21:21:54.987Z,22.30
2018-05-09T21:24:22.548Z,22.30
2018-05-09T21:26:50.049Z,22.40
2018-05-09T21:29:18.332Z,22.50
2018-05-09T21:31:45.817Z,22.50
2018-05-09T21:34:14.065Z,22.70
2018-05-09T21:36:41.557Z,22.70
2018-05-09T21:39:09.038Z,22.80
2018-05-09T21:41:37.288Z,22.90
2018-05-09T21:44:05.534Z,23.00
2018-05-09T21:46:33.803Z,23.00
2018-05-09T21:49:01.289Z,23.10
2018-05-09T21:51:29.560Z,23.20
2018-05-09T21:53:57.128Z,23.20
2018-05-09T21:56:24.708Z,23.40
2018-05-09T21:58:52.956Z,23.40
2018-05-09T22:01:23.283Z,23.40
2018-05-09T22:03:50.809Z,23.40
2018-05-09T22:06:18.433Z,23.50
2018-05-09T22:08:45.910Z,23.40
2018-05-09T22:11:13.425Z,23.40
2018-05-09T22:13:41.668Z,23.40
2018-05-09T22:16:09.158Z,23.40
2018-05-09T22:18:36.643Z,23.40
2018-05-09T22:21:04.130Z,23.50
2018-05-09T22:23:32.389Z,23.50
2018-05-09T22:25:59.877Z,23.50
2018-05-09T22:28:27.377Z,23.50
2018-05-09T22:30:54.853Z,23.50
2018-05-09T22:33:22.348Z,23.60
2018-05-09T22:35:49.840Z,23.50
2018-05-09T22:38:17.453Z,23.60
2018-05-09T22:40:44.946Z,23.60
2018-05-09T22:43:12.433Z,23.60
2018-05-09T22:45:39.901Z,23.60
2018-05-09T22:48:07.417Z,23.60
2018-05-09T22:50:34.899Z,23.60
2018-05-09T22:53:02.396Z,23.70
2018-05-09T22:55:29.900Z,24.10
2018-05-09T22:57:57.467Z,23.90
2018-05-09T23:00:25.825Z,23.90
2018-05-09T23:02:53.403Z,24.20
2018-05-09T23:05:20.882Z,24.30
2018-05-09T23:07:48.430Z,24.60
2018-05-09T23:10:16.738Z,24.80
2018-05-09T23:12:44.245Z,24.90
2018-05-09T23:15:11.736Z,24.80
2018-05-09T23:17:39.265Z,25.00
2018-05-09T23:20:07.349Z,25.10
2018-05-09T23:22:34.811Z,25.10
2018-05-09T23:25:02.315Z,25.30
2018-05-09T23:27:29.785Z,25.50
2018-05-09T23:29:57.391Z,25.70
2018-05-09T23:32:24.861Z,25.90
2018-05-09T23:34:52.389Z,26.10
2018-05-09T23:37:19.867Z,26.10
2018-05-09T23:39:47.369Z,26.00
2018-05-09T23:42:14.862Z,26.00
2018-05-09T23:44:43.140Z,26.70
2018-05-09T23:47:10.632Z,26.30
2018-05-09T23:49:38.982Z,26.50
2018-05-09T23:52:06.552Z,26.60
2018-05-09T23:54:34.716Z,26.70
2018-05-09T23:57:02.222Z,26.70
2018-05-09T23:59:29.705Z,26.80
